createdAt,value
2023-02-11T00:00:55.637Z,90.50
2023-02-11T00:03:22.452Z,90.50
2023-02-11T00:06:11.148Z,90.50
2023-02-11T00:08:38.689Z,90.60
2023-02-11T00:11:05.563Z,90.70
2023-02-11T00:13:32.233Z,90.80
2023-02-11T00:15:58.943Z,90.90
2023-02-11T00:18:25.597Z,91.00
2023-02-11T00:20:52.285Z,91.10
2023-02-11T00:23:18.993Z,91.20
2023-02-11T00:25:45.728Z,91.20
2023-02-11T00:28:12.602Z,91.40
2023-02-11T00:30:39.561Z,91.50
2023-02-11T00:33:06.392Z,91.60
2023-02-11T00:35:33.105Z,91.80
2023-02-11T00:37:59.811Z,91.90
2023-02-11T00:40:26.536Z,91.90
2023-02-11T00:42:53.207Z,92.00
2023-02-11T00:45:21.297Z,92.30
2023-02-11T00:47:48.174Z,92.40
2023-02-11T00:50:15.076Z,92.60
2023-02-11T00:52:41.752Z,92.70
2023-02-11T00:55:08.819Z,92.90
2023-02-11T00:57:35.550Z,93.00
2023-02-11T01:00:02.503Z,93.00
2023-02-11T01:02:29.189Z,93.40
2023-02-11T01:04:55.914Z,93.50
2023-02-11T01:07:22.796Z,93.80
2023-02-11T01:09:49.521Z,93.70
2023-02-11T01:12:16.282Z,94.00
2023-02-11T01:14:44.882Z,94.20
2023-02-11T01:17:11.686Z,94.20
2023-02-11T01:19:38.732Z,94.40
2023-02-11T01:22:06.463Z,94.40
2023-02-11T01:24:33.206Z,94.60
2023-02-11T01:26:59.898Z,94.70
2023-02-11T01:29:26.569Z,94.70
2023-02-11T01:31:53.356Z,94.80
2023-02-11T01:34:20.102Z,94.70
2023-02-11T01:36:46.784Z,94.80
2023-02-11T01:39:13.472Z,94.80
2023-02-11T01:41:40.191Z,94.80
2023-02-11T01:44:25.890Z,94.50
2023-02-11T01:46:52.728Z,94.60
2023-02-11T01:49:30.580Z,94.90
2023-02-11T01:52:03.240Z,94.70
2023-02-11T01:54:51.391Z,94.70
2023-02-11T01:57:22.751Z,94.60
2023-02-11T01:59:49.446Z,94.60
2023-02-11T02:02:18.070Z,94.60
2023-02-11T02:04:57.580Z,94.60
2023-02-11T02:07:41.467Z,94.50
2023-02-11T02:10:11.307Z,94.40
2023-02-11T02:12:38.034Z,94.30
2023-02-11T02:15:21.199Z,94.20
2023-02-11T02:17:53.885Z,94.20
2023-02-11T02:20:31.152Z,94.10
2023-02-11T02:23:12.398Z,94.20
2023-02-11T02:25:42.112Z,94.10
2023-02-11T02:28:27.797Z,94.00
2023-02-11T02:30:57.631Z,93.80
2023-02-11T02:33:47.816Z,93.60
2023-02-11T02:36:18.221Z,93.70
2023-02-11T02:38:58.042Z,93.50
2023-02-11T02:41:27.879Z,93.60
2023-02-11T02:43:54.782Z,93.50
2023-02-11T02:46:23.547Z,93.40
2023-02-11T02:48:52.615Z,93.30
2023-02-11T02:51:31.328Z,93.30
2023-02-11T02:54:13.106Z,93.40
2023-02-11T02:56:44.680Z,93.20
2023-02-11T02:59:30.280Z,93.20
2023-02-11T03:01:59.923Z,93.10
2023-02-11T03:04:36.220Z,93.10
2023-02-11T03:07:06.093Z,93.20
2023-02-11T03:09:36.390Z,93.20
2023-02-11T03:12:04.005Z,93.10
2023-02-11T03:14:31.523Z,93.10
2023-02-11T03:17:00.412Z,93.10
2023-02-11T03:19:30.486Z,93.00
2023-02-11T03:21:57.730Z,93.10
2023-02-11T03:24:33.035Z,93.10
2023-02-11T03:27:09.301Z,93.10
2023-02-11T03:29:56.952Z,93.10
2023-02-11T03:32:36.558Z,93.30
2023-02-11T03:35:03.208Z,93.30
2023-02-11T03:37:30.009Z,93.40
2023-02-11T03:39:59.912Z,93.50
2023-02-11T03:42:29.404Z,93.50
2023-02-11T03:44:59.275Z,93.60
2023-02-11T03:47:27.587Z,93.60
2023-02-11T03:49:55.405Z,93.50
2023-02-11T03:52:22.180Z,93.60
2023-02-11T03:54:51.196Z,93.60
2023-02-11T03:57:17.932Z,93.60
2023-02-11T03:59:51.692Z,93.60
2023-02-11T04:02:18.948Z,93.60
2023-02-11T04:04:46.204Z,93.60
2023-02-11T04:07:12.923Z,93.50
2023-02-11T04:09:39.548Z,93.40
2023-02-11T04:12:06.414Z,93.40
2023-02-11T04:14:33.103Z,93.30
2023-02-11T04:16:59.762Z,93.30
2023-02-11T04:19:26.435Z,93.20
2023-02-11T04:21:53.084Z,93.20
2023-02-11T04:24:19.815Z,93.10
2023-02-11T04:26:46.519Z,93.10
2023-02-11T04:29:13.194Z,93.10
2023-02-11T04:31:39.919Z,93.20
2023-02-11T04:34:06.640Z,93.10
2023-02-11T04:36:33.376Z,93.10
2023-02-11T04:39:00.409Z,93.10
2023-02-11T04:41:27.188Z,93.10
2023-02-11T04:43:53.844Z,93.00
2023-02-11T04:46:20.820Z,93.00
2023-02-11T04:48:47.560Z,93.00
2023-02-11T04:51:14.268Z,92.90
2023-02-11T04:53:41.119Z,92.80
2023-02-11T04:56:07.879Z,92.80
2023-02-11T04:58:34.691Z,92.80
2023-02-11T05:01:08.295Z,92.80
2023-02-11T05:03:35.416Z,92.80
2023-02-11T05:06:02.254Z,92.90
2023-02-11T05:08:29.155Z,92.80
2023-02-11T05:10:55.883Z,92.90
2023-02-11T05:13:22.754Z,92.90
2023-02-11T05:15:49.941Z,92.90
2023-02-11T05:18:16.832Z,92.90
2023-02-11T05:20:44.022Z,92.80
2023-02-11T05:23:11.480Z,92.90
2023-02-11T05:25:38.506Z,92.90
2023-02-11T05:28:05.498Z,92.90
2023-02-11T05:30:32.499Z,92.80
2023-02-11T05:32:59.290Z,92.80
2023-02-11T05:35:25.994Z,92.80
2023-02-11T05:37:52.811Z,92.90
2023-02-11T05:40:19.591Z,93.00
2023-02-11T05:42:46.264Z,93.00
2023-02-11T05:45:12.970Z,92.90
2023-02-11T05:47:39.640Z,92.80
2023-02-11T05:50:06.529Z,92.80
2023-02-11T05:52:33.338Z,92.80
2023-02-11T05:55:00.403Z,92.80
2023-02-11T05:57:27.117Z,92.90
2023-02-11T05:59:53.930Z,92.90
2023-02-11T06:02:20.730Z,92.90
2023-02-11T06:04:47.440Z,92.90
2023-02-11T06:07:14.278Z,93.00
2023-02-11T06:09:40.968Z,92.90
2023-02-11T06:12:07.746Z,92.90
2023-02-11T06:14:34.443Z,92.80
2023-02-11T06:17:01.255Z,92.90
2023-02-11T06:19:27.999Z,93.00
2023-02-11T06:21:55.789Z,92.80
2023-02-11T06:24:45.191Z,92.80
2023-02-11T06:27:09.296Z,92.80
2023-02-11T06:29:36.168Z,92.80
2023-02-11T06:32:03.102Z,92.80
2023-02-11T06:34:29.907Z,92.80
2023-02-11T06:36:56.609Z,92.70
2023-02-11T06:39:23.321Z,92.80
2023-02-11T06:41:50.040Z,92.80
2023-02-11T06:44:16.771Z,92.80
2023-02-11T06:46:43.569Z,92.70
2023-02-11T06:49:10.370Z,92.60
2023-02-11T06:51:37.195Z,92.60
2023-02-11T06:54:04.943Z,92.60
2023-02-11T06:56:31.827Z,92.60
2023-02-11T06:58:58.558Z,92.70
2023-02-11T07:01:27.080Z,92.70
2023-02-11T07:03:54.106Z,92.70
2023-02-11T07:06:22.398Z,92.70
2023-02-11T07:08:49.242Z,92.70
2023-02-11T07:11:18.027Z,92.70
2023-02-11T07:13:44.788Z,92.80
2023-02-11T07:16:13.065Z,92.80
2023-02-11T07:18:41.368Z,93.00
2023-02-11T07:21:09.142Z,93.20
2023-02-11T07:23:36.376Z,93.20
2023-02-11T07:26:04.333Z,93.30
2023-02-11T07:28:31.866Z,93.40
2023-02-11T07:30:58.701Z,93.40
2023-02-11T07:33:25.492Z,93.50
2023-02-11T07:35:52.489Z,93.50
2023-02-11T07:38:19.700Z,93.50
2023-02-11T07:40:46.462Z,93.40
2023-02-11T07:43:13.292Z,93.50
2023-02-11T07:45:40.276Z,93.70
2023-02-11T07:48:07.016Z,93.70
2023-02-11T07:50:33.880Z,93.70
2023-02-11T07:53:00.562Z,93.70
2023-02-11T07:55:27.281Z,93.80
2023-02-11T07:57:53.947Z,93.80
2023-02-11T08:00:21.279Z,93.80
2023-02-11T08:02:48.074Z,93.80
2023-02-11T08:05:14.817Z,93.90
2023-02-11T08:07:41.493Z,94.00
2023-02-11T08:10:08.343Z,94.10
2023-02-11T08:12:35.026Z,94.30
2023-02-11T08:15:01.761Z,94.60
2023-02-11T08:17:28.476Z,94.70
2023-02-11T08:19:55.166Z,94.70
2023-02-11T08:22:21.880Z,94.80
2023-02-11T08:24:51.369Z,94.90
2023-02-11T08:27:18.975Z,94.80
2023-02-11T08:29:45.698Z,94.90
2023-02-11T08:32:12.440Z,94.80
2023-02-11T08:34:39.266Z,94.60
2023-02-11T08:37:05.976Z,94.50
2023-02-11T08:39:32.728Z,94.40
2023-02-11T08:41:59.404Z,94.40
2023-02-11T08:44:26.311Z,94.40
2023-02-11T08:46:53.199Z,94.50
2023-02-11T08:49:20.338Z,94.30
2023-02-11T08:51:47.058Z,94.30
2023-02-11T08:54:13.788Z,94.50
2023-02-11T08:56:40.526Z,94.40
2023-02-11T08:59:09.416Z,94.40
2023-02-11T09:01:36.367Z,94.50
2023-02-11T09:04:03.114Z,94.50
2023-02-11T09:06:30.227Z,94.50
2023-02-11T09:08:57.479Z,94.60
2023-02-11T09:11:29.268Z,94.70
2023-02-11T09:13:56.026Z,94.70
2023-02-11T09:16:24.135Z,94.80
2023-02-11T09:18:51.060Z,94.80
2023-02-11T09:21:19.178Z,94.90
2023-02-11T09:23:47.810Z,95.10
2023-02-11T09:26:14.569Z,95.40
2023-02-11T09:28:41.305Z,95.30
2023-02-11T09:31:09.172Z,95.30
2023-02-11T09:33:36.090Z,95.40
2023-02-11T09:36:03.883Z,95.50
2023-02-11T09:38:30.780Z,95.50
2023-02-11T09:40:57.493Z,95.90
2023-02-11T09:43:31.202Z,96.10
2023-02-11T09:45:58.097Z,96.10
2023-02-11T09:48:24.847Z,96.10
2023-02-11T09:50:54.204Z,96.10
2023-02-11T09:53:23.889Z,96.40
2023-02-11T09:56:13.936Z,96.40
2023-02-11T09:58:42.074Z,96.40
2023-02-11T10:01:27.763Z,96.40
2023-02-11T10:04:12.874Z,96.20
2023-02-11T10:06:48.931Z,96.10
2023-02-11T10:09:34.230Z,96.30
2023-02-11T10:12:04.437Z,96.20
2023-02-11T10:14:46.408Z,96.10
2023-02-11T10:17:32.910Z,95.90
2023-02-11T10:20:02.712Z,96.00
2023-02-11T10:22:37.781Z,96.00
2023-02-11T10:25:12.944Z,95.90
2023-02-11T10:27:39.632Z,95.70
2023-02-11T10:30:09.876Z,95.60
2023-02-11T10:32:44.219Z,95.80
2023-02-11T10:35:22.074Z,95.90
2023-02-11T10:37:49.192Z,95.70
2023-02-11T10:40:17.333Z,95.70
2023-02-11T10:42:46.095Z,95.70
2023-02-11T10:45:17.833Z,95.60
2023-02-11T10:47:44.631Z,95.60
2023-02-11T10:50:22.245Z,95.80
2023-02-11T10:52:49.035Z,95.80
2023-02-11T10:55:24.321Z,96.00
2023-02-11T10:57:56.225Z,95.70
2023-02-11T11:00:36.929Z,95.50
2023-02-11T11:03:05.402Z,95.60
2023-02-11T11:05:33.360Z,95.90
2023-02-11T11:08:02.019Z,95.90
2023-02-11T11:10:28.760Z,96.10
2023-02-11T11:12:55.521Z,96.30
2023-02-11T11:15:23.549Z,96.30
2023-02-11T11:17:51.175Z,96.10
2023-02-11T11:20:22.669Z,96.20
2023-02-11T11:22:51.212Z,96.10
2023-02-11T11:25:29.358Z,95.80
2023-02-11T11:27:57.342Z,95.90
2023-02-11T11:30:27.045Z,96.10
2023-02-11T11:32:54.029Z,96.30
2023-02-11T11:35:23.354Z,96.20
2023-02-11T11:37:55.004Z,96.30
2023-02-11T11:40:23.644Z,96.60
2023-02-11T11:43:09.089Z,96.50
2023-02-11T11:45:35.909Z,96.20
2023-02-11T11:48:24.303Z,96.10
2023-02-11T11:50:51.240Z,95.90
2023-02-11T11:53:24.773Z,96.00
2023-02-11T11:55:59.829Z,96.00
2023-02-11T11:58:28.499Z,96.00
2023-02-11T12:01:04.282Z,95.90
2023-02-11T12:03:49.778Z,95.70
2023-02-11T12:06:35.291Z,95.50
2023-02-11T12:09:02.052Z,95.30
2023-02-11T12:11:47.517Z,95.20
2023-02-11T12:14:17.273Z,95.30
2023-02-11T12:16:43.989Z,95.40
2023-02-11T12:19:26.722Z,95.40
2023-02-11T12:22:11.013Z,95.30
2023-02-11T12:24:58.772Z,95.40
2023-02-11T12:27:28.292Z,95.50
2023-02-11T12:30:01.131Z,95.40
2023-02-11T12:32:41.081Z,95.30
2023-02-11T12:35:10.912Z,95.30
2023-02-11T12:37:44.250Z,94.90
2023-02-11T12:40:17.195Z,94.90
2023-02-11T12:43:10.686Z,94.80
2023-02-11T12:45:56.211Z,95.00
2023-02-11T12:48:34.140Z,95.10
2023-02-11T12:51:02.356Z,95.30
2023-02-11T12:53:46.039Z,95.50
2023-02-11T12:56:16.467Z,95.70
2023-02-11T12:58:45.823Z,95.90
2023-02-11T13:01:17.031Z,96.00
2023-02-11T13:03:47.376Z,96.30
2023-02-11T13:06:16.229Z,96.40
2023-02-11T13:08:59.703Z,96.70
2023-02-11T13:11:28.291Z,96.80
2023-02-11T13:13:57.529Z,96.80
2023-02-11T13:16:24.357Z,97.00
2023-02-11T13:19:06.618Z,97.10
2023-02-11T13:21:40.460Z,96.90
2023-02-11T13:24:07.173Z,96.70
2023-02-11T13:26:47.721Z,96.70
2023-02-11T13:29:31.032Z,96.70
2023-02-11T13:32:08.775Z,96.70
2023-02-11T13:34:41.680Z,96.80
2023-02-11T13:37:26.615Z,96.70
2023-02-11T13:39:57.267Z,96.90
2023-02-11T13:42:24.258Z,97.00
2023-02-11T13:44:51.250Z,96.90
2023-02-11T13:47:44.534Z,96.70
2023-02-11T13:50:21.531Z,96.70
2023-02-11T13:52:48.224Z,96.90
2023-02-11T13:55:21.620Z,96.90
2023-02-11T13:58:06.678Z,96.90
2023-02-11T14:00:39.534Z,96.70
2023-02-11T14:03:31.388Z,96.70
2023-02-11T14:06:29.100Z,96.80
2023-02-11T14:09:00.575Z,96.80
2023-02-11T14:11:33.638Z,96.70
2023-02-11T14:14:03.567Z,96.60
2023-02-11T14:16:37.971Z,96.80
2023-02-11T14:19:06.297Z,97.40
2023-02-11T14:21:35.975Z,97.50
2023-02-11T14:24:04.863Z,98.20
2023-02-11T14:26:40.837Z,98.00
2023-02-11T14:29:19.866Z,98.40
2023-02-11T14:31:46.598Z,98.80
2023-02-11T14:34:36.878Z,99.00
2023-02-11T14:37:03.951Z,99.60
2023-02-11T14:39:30.656Z,99.90
2023-02-11T14:41:57.457Z,99.90
2023-02-11T14:44:26.876Z,99.90
2023-02-11T14:46:54.196Z,99.90
2023-02-11T14:49:25.458Z,99.90
2023-02-11T14:51:56.440Z,99.90
2023-02-11T14:54:25.272Z,99.90
2023-02-11T14:57:11.284Z,99.90
2023-02-11T14:59:38.424Z,99.90
2023-02-11T15:02:19.761Z,99.90
2023-02-11T15:04:46.488Z,99.90
2023-02-11T15:07:13.559Z,99.90
2023-02-11T15:09:41.791Z,99.90
2023-02-11T15:12:35.550Z,99.90
2023-02-11T15:15:02.374Z,99.90
2023-02-11T15:17:31.022Z,99.90
2023-02-11T15:19:59.954Z,99.90
2023-02-11T15:22:33.013Z,99.90
2023-02-11T15:25:10.354Z,99.90
2023-02-11T15:27:44.573Z,99.90
2023-02-11T15:30:23.415Z,99.90
2023-02-11T15:32:50.995Z,99.90
2023-02-11T15:35:18.634Z,99.90
2023-02-11T15:37:45.498Z,99.90
2023-02-11T15:40:19.990Z,99.90
2023-02-11T15:42:56.192Z,99.90
2023-02-11T15:45:30.453Z,99.90
2023-02-11T15:48:16.216Z,99.90
2023-02-11T15:50:48.273Z,99.90
2023-02-11T15:53:37.919Z,99.90
2023-02-11T15:56:17.477Z,99.90
2023-02-11T15:58:45.584Z,99.90
2023-02-11T16:01:12.893Z,99.90
2023-02-11T16:03:41.368Z,99.90
2023-02-11T16:06:17.140Z,99.90
2023-02-11T16:08:55.910Z,99.90
2023-02-11T16:11:33.659Z,99.90
2023-02-11T16:14:01.670Z,99.90
2023-02-11T16:16:29.624Z,99.90
2023-02-11T16:19:04.713Z,99.90
2023-02-11T16:21:42.461Z,99.90
2023-02-11T16:24:18.564Z,99.90
2023-02-11T16:26:48.122Z,99.90
2023-02-11T16:29:22.004Z,99.90
2023-02-11T16:31:50.383Z,99.90
2023-02-11T16:34:18.536Z,99.90
2023-02-11T16:36:45.793Z,99.90
2023-02-11T16:39:12.589Z,99.90
2023-02-11T16:41:39.356Z,99.90
2023-02-11T16:44:06.350Z,99.90
2023-02-11T16:46:33.197Z,99.90
2023-02-11T16:49:05.785Z,99.90
2023-02-11T16:51:32.553Z,99.90
2023-02-11T16:53:59.229Z,99.90
2023-02-11T16:56:25.948Z,99.90
2023-02-11T16:58:52.625Z,99.90
2023-02-11T17:01:19.396Z,99.90
2023-02-11T17:03:46.399Z,99.90
2023-02-11T17:06:13.635Z,99.90
2023-02-11T17:08:40.698Z,99.90
2023-02-11T17:11:07.411Z,99.90
2023-02-11T17:13:34.160Z,99.90
2023-02-11T17:16:01.035Z,99.90
2023-02-11T17:18:28.047Z,99.90
2023-02-11T17:20:54.789Z,99.90
2023-02-11T17:23:21.498Z,99.90
2023-02-11T17:25:54.723Z,99.90
2023-02-11T17:28:22.231Z,99.90
2023-02-11T17:30:48.982Z,99.90
2023-02-11T17:33:16.165Z,99.90
2023-02-11T17:35:43.016Z,99.90
2023-02-11T17:38:09.791Z,99.90
2023-02-11T17:40:36.535Z,99.90
2023-02-11T17:43:03.456Z,99.90
2023-02-11T17:45:30.234Z,99.90
2023-02-11T17:47:56.920Z,99.90
2023-02-11T17:50:23.794Z,99.90
2023-02-11T17:52:50.482Z,99.90
2023-02-11T17:55:17.224Z,99.90
2023-02-11T17:57:43.932Z,99.90
2023-02-11T18:00:11.062Z,99.90
2023-02-11T18:02:37.984Z,99.90
2023-02-11T18:05:05.391Z,99.90
2023-02-11T18:07:32.232Z,99.90
2023-02-11T18:09:59.040Z,99.90
2023-02-11T18:12:26.330Z,99.90
2023-02-11T18:14:57.986Z,99.90
2023-02-11T18:17:25.409Z,99.90
2023-02-11T18:19:55.184Z,99.90
2023-02-11T18:22:22.006Z,99.90
2023-02-11T18:24:55.129Z,99.90
2023-02-11T18:27:22.326Z,99.90
2023-02-11T18:29:49.148Z,99.90
2023-02-11T18:32:16.018Z,99.90
2023-02-11T18:34:43.336Z,99.90
2023-02-11T18:37:10.352Z,99.90
2023-02-11T18:39:37.299Z,99.90
2023-02-11T18:42:04.140Z,99.90
2023-02-11T18:44:30.910Z,99.90
2023-02-11T18:46:57.610Z,99.90
2023-02-11T18:49:24.344Z,99.90
2023-02-11T18:51:51.149Z,99.90
2023-02-11T18:54:17.953Z,99.90
2023-02-11T18:56:44.818Z,99.90
2023-02-11T18:59:11.555Z,99.90
2023-02-11T19:01:40.763Z,99.90
2023-02-11T19:04:07.568Z,99.90
2023-02-11T19:06:35.545Z,99.90
2023-02-11T19:09:04.117Z,99.90
2023-02-11T19:11:51.798Z,99.90
2023-02-11T19:14:22.944Z,99.90
2023-02-11T19:16:50.706Z,99.90
2023-02-11T19:19:17.963Z,99.90
2023-02-11T19:21:45.601Z,99.90
2023-02-11T19:24:13.060Z,99.90
2023-02-11T19:26:39.792Z,99.90
2023-02-11T19:29:06.592Z,99.90
2023-02-11T19:31:33.616Z,99.90
2023-02-11T19:34:00.726Z,99.90
2023-02-11T19:36:27.955Z,99.90
2023-02-11T19:38:54.849Z,99.90
2023-02-11T19:41:24.493Z,99.90
2023-02-11T19:43:56.642Z,99.90
2023-02-11T19:46:24.595Z,99.90
2023-02-11T19:48:51.861Z,99.90
2023-02-11T19:51:18.741Z,99.90
2023-02-11T19:53:45.912Z,99.90
2023-02-11T19:56:13.613Z,99.90
2023-02-11T19:58:41.132Z,99.90
2023-02-11T20:01:12.324Z,99.90
2023-02-11T20:03:42.162Z,99.90
2023-02-11T20:06:13.123Z,99.90
2023-02-11T20:08:39.962Z,99.90
2023-02-11T20:11:08.223Z,99.90
2023-02-11T20:13:34.958Z,99.90
2023-02-11T20:16:12.867Z,99.90
2023-02-11T20:18:40.330Z,99.90
2023-02-11T20:21:26.595Z,99.90
2023-02-11T20:23:53.957Z,99.90
2023-02-11T20:26:20.760Z,99.90
2023-02-11T20:28:48.423Z,99.90
2023-02-11T20:31:15.587Z,99.90
2023-02-11T20:33:42.571Z,99.90
2023-02-11T20:36:15.446Z,99.90
2023-02-11T20:38:42.678Z,99.90
2023-02-11T20:41:14.958Z,99.90
2023-02-11T20:43:42.737Z,99.90
2023-02-11T20:46:09.551Z,99.90
2023-02-11T20:48:36.343Z,99.90
2023-02-11T20:51:27.580Z,99.90
2023-02-11T20:53:54.348Z,99.90
2023-02-11T20:56:22.338Z,99.90
2023-02-11T20:58:49.356Z,99.90
2023-02-11T21:01:20.610Z,99.90
2023-02-11T21:03:51.758Z,99.90
2023-02-11T21:06:19.510Z,99.90
2023-02-11T21:08:46.674Z,99.90
2023-02-11T21:11:13.922Z,99.90
2023-02-11T21:13:41.523Z,99.90
2023-02-11T21:16:08.718Z,99.90
2023-02-11T21:18:35.574Z,99.90
2023-02-11T21:21:02.292Z,99.90
2023-02-11T21:23:29.421Z,99.90
2023-02-11T21:25:56.813Z,99.90
2023-02-11T21:28:26.442Z,99.90
2023-02-11T21:30:53.976Z,99.90
2023-02-11T21:33:21.014Z,99.90
2023-02-11T21:35:47.882Z,99.90
2023-02-11T21:38:14.621Z,99.90
2023-02-11T21:40:41.496Z,99.90
2023-02-11T21:43:08.293Z,99.90
2023-02-11T21:45:35.153Z,99.90
2023-02-11T21:48:01.901Z,99.90
2023-02-11T21:50:28.628Z,99.90
2023-02-11T21:52:55.374Z,99.90
2023-02-11T21:55:22.085Z,99.90
2023-02-11T21:57:48.755Z,99.90
2023-02-11T22:00:15.876Z,99.90
2023-02-11T22:02:43.044Z,99.90
2023-02-11T22:05:09.852Z,99.90
2023-02-11T22:07:36.584Z,99.90
2023-02-11T22:10:03.955Z,99.90
2023-02-11T22:12:30.828Z,99.90
2023-02-11T22:14:57.553Z,99.90
2023-02-11T22:17:24.407Z,99.90
2023-02-11T22:19:51.284Z,99.90
2023-02-11T22:22:19.747Z,99.90
2023-02-11T22:24:46.840Z,99.90
2023-02-11T22:27:14.057Z,99.90
2023-02-11T22:29:40.761Z,99.90
2023-02-11T22:32:07.738Z,99.90
2023-02-11T22:34:34.550Z,99.90
2023-02-11T22:37:02.430Z,99.90
2023-02-11T22:39:29.493Z,99.90
2023-02-11T22:41:56.782Z,99.90
2023-02-11T22:44:24.082Z,99.90
2023-02-11T22:46:51.534Z,99.90
2023-02-11T22:49:19.620Z,99.90
2023-02-11T22:51:46.326Z,99.90
2023-02-11T22:54:14.682Z,99.90
2023-02-11T22:56:41.702Z,99.90
2023-02-11T22:59:10.684Z,99.90
2023-02-11T23:01:37.879Z,99.90
2023-02-11T23:04:05.641Z,99.90
2023-02-11T23:06:32.758Z,99.90
2023-02-11T23:08:59.486Z,99.90
2023-02-11T23:11:28.386Z,99.90
2023-02-11T23:13:55.165Z,99.90
2023-02-11T23:16:23.599Z,99.90
2023-02-11T23:18:50.506Z,99.90
2023-02-11T23:21:21.133Z,99.90
2023-02-11T23:23:48.796Z,99.90
2023-02-11T23:26:17.628Z,99.90
2023-02-11T23:28:47.421Z,99.90
2023-02-11T23:31:24.882Z,99.90
2023-02-11T23:33:52.297Z,99.90
2023-02-11T23:36:19.948Z,99.90
2023-02-11T23:38:46.838Z,99.90
2023-02-11T23:41:14.024Z,99.90
2023-02-11T23:43:40.831Z,99.90
2023-02-11T23:46:07.844Z,99.90
2023-02-11T23:48:36.094Z,99.90
2023-02-11T23:51:03.185Z,99.90
2023-02-11T23:53:29.977Z,99.90
2023-02-11T23:55:56.901Z,99.90
2023-02-11T23:58:23.892Z,99.90
